« Back
NWS Peachtree City, Ga » Text Product » MCN Terminal Aerodrome Forecast


Printer-friendly Version
Current Version              Previous Versions:   1  2  3  4  5  6  7  8  9  

Terminal Aerodrome Forecast

022
FTUS42 KFFC 070527
TAFMCN
TAF
KMCN 070527Z 0706/0806 35004KT P6SM SCT040 BKN250
     FM071000 33004KT P6SM SCT150
     FM071600 31011G17KT P6SM SCT250
     FM072200 29006KT P6SM SCT250=

USA.gov is the U.S. government's official web portal to all federal, state and local government web resources and services.